sensor_id;sensor_type;location;lat;lon;timestamp;P1;durP1;ratioP1;P2;durP2;ratioP2
53801;SDS011;39709;53.334;6.534;2022-10-18T00:02:12;22.20;;;7.60;;
53801;SDS011;39709;53.334;6.534;2022-10-18T00:04:38;19.60;;;8.63;;
53801;SDS011;39709;53.334;6.534;2022-10-18T00:07:03;17.63;;;7.73;;
53801;SDS011;39709;53.334;6.534;2022-10-18T00:09:29;23.05;;;8.43;;
53801;SDS011;39709;53.334;6.534;2022-10-18T00:11:55;17.83;;;9.13;;
53801;SDS011;39709;53.334;6.534;2022-10-18T00:14:21;22.60;;;9.00;;
53801;SDS011;39709;53.334;6.534;2022-10-18T00:16:47;18.20;;;8.68;;
53801;SDS011;39709;53.334;6.534;2022-10-18T00:19:13;18.37;;;9.13;;
53801;SDS011;39709;53.334;6.534;2022-10-18T00:21:38;17.45;;;8.00;;
53801;SDS011;39709;53.334;6.534;2022-10-18T00:24:04;18.37;;;6.97;;
53801;SDS011;39709;53.334;6.534;2022-10-18T00:26:30;16.70;;;7.20;;
53801;SDS011;39709;53.334;6.534;2022-10-18T00:29:03;13.57;;;5.60;;
53801;SDS011;39709;53.334;6.534;2022-10-18T00:31:33;17.88;;;7.25;;
53801;SDS011;39709;53.334;6.534;2022-10-18T00:34:01;18.47;;;7.17;;
53801;SDS011;39709;53.334;6.534;2022-10-18T00:36:29;18.40;;;8.27;;
53801;SDS011;39709;53.334;6.534;2022-10-18T00:38:56;16.60;;;8.30;;
53801;SDS011;39709;53.334;6.534;2022-10-18T00:41:23;16.52;;;9.07;;
53801;SDS011;39709;53.334;6.534;2022-10-18T00:43:52;18.77;;;9.55;;
53801;SDS011;39709;53.334;6.534;2022-10-18T00:46:51;23.00;;;9.27;;
53801;SDS011;39709;53.334;6.534;2022-10-18T00:49:24;22.02;;;9.30;;
53801;SDS011;39709;53.334;6.534;2022-10-18T00:51:56;22.50;;;9.43;;
53801;SDS011;39709;53.334;6.534;2022-10-18T00:54:37;20.02;;;7.70;;
53801;SDS011;39709;53.334;6.534;2022-10-18T00:57:05;16.90;;;7.18;;
53801;SDS011;39709;53.334;6.534;2022-10-18T00:59:32;19.63;;;8.50;;
53801;SDS011;39709;53.334;6.534;2022-10-18T01:01:59;16.63;;;8.15;;
53801;SDS011;39709;53.334;6.534;2022-10-18T01:04:25;20.25;;;7.80;;
53801;SDS011;39709;53.334;6.534;2022-10-18T01:15:04;22.30;;;9.35;;
53801;SDS011;39709;53.334;6.534;2022-10-18T01:17:44;23.17;;;8.63;;
53801;SDS011;39709;53.334;6.534;2022-10-18T01:23:26;34.25;;;10.57;;
53801;SDS011;39709;53.334;6.534;2022-10-18T01:31:52;36.03;;;8.85;;
53801;SDS011;39709;53.334;6.534;2022-10-18T01:34:26;23.97;;;8.00;;
53801;SDS011;39709;53.334;6.534;2022-10-18T01:36:58;23.42;;;8.80;;
53801;SDS011;39709;53.334;6.534;2022-10-18T01:39:27;26.85;;;8.07;;
53801;SDS011;39709;53.334;6.534;2022-10-18T01:41:57;22.98;;;7.53;;
53801;SDS011;39709;53.334;6.534;2022-10-18T01:44:25;25.80;;;7.95;;
53801;SDS011;39709;53.334;6.534;2022-10-18T01:46:56;49.47;;;8.67;;
53801;SDS011;39709;53.334;6.534;2022-10-18T01:49:23;18.05;;;6.88;;
53801;SDS011;39709;53.334;6.534;2022-10-18T01:51:50;23.73;;;6.25;;
53801;SDS011;39709;53.334;6.534;2022-10-18T01:54:17;39.13;;;7.18;;
53801;SDS011;39709;53.334;6.534;2022-10-18T02:06:55;22.98;;;6.40;;
53801;SDS011;39709;53.334;6.534;2022-10-18T02:09:29;21.75;;;7.57;;
53801;SDS011;39709;53.334;6.534;2022-10-18T02:12:10;15.60;;;7.17;;
53801;SDS011;39709;53.334;6.534;2022-10-18T02:14:39;25.65;;;7.15;;
53801;SDS011;39709;53.334;6.534;2022-10-18T02:17:07;16.27;;;6.93;;
53801;SDS011;39709;53.334;6.534;2022-10-18T02:19:40;31.60;;;5.70;;
53801;SDS011;39709;53.334;6.534;2022-10-18T02:22:10;27.65;;;7.40;;
53801;SDS011;39709;53.334;6.534;2022-10-18T02:24:39;16.00;;;7.33;;
53801;SDS011;39709;53.334;6.534;2022-10-18T02:27:08;23.33;;;5.97;;
53801;SDS011;39709;53.334;6.534;2022-10-18T02:29:34;22.98;;;7.65;;
53801;SDS011;39709;53.334;6.534;2022-10-18T02:32:11;25.60;;;7.82;;
53801;SDS011;39709;53.334;6.534;2022-10-18T02:37:44;22.33;;;7.00;;
53801;SDS011;39709;53.334;6.534;2022-10-18T02:40:13;32.33;;;8.82;;
53801;SDS011;39709;53.334;6.534;2022-10-18T02:42:43;24.52;;;8.35;;
53801;SDS011;39709;53.334;6.534;2022-10-18T02:45:20;20.60;;;7.50;;
53801;SDS011;39709;53.334;6.534;2022-10-18T02:47:47;22.03;;;8.43;;
53801;SDS011;39709;53.334;6.534;2022-10-18T02:50:12;18.73;;;7.30;;
53801;SDS011;39709;53.334;6.534;2022-10-18T02:52:39;21.05;;;7.85;;
53801;SDS011;39709;53.334;6.534;2022-10-18T02:55:05;19.50;;;8.35;;
53801;SDS011;39709;53.334;6.534;2022-10-18T02:57:32;19.53;;;8.37;;
53801;SDS011;39709;53.334;6.534;2022-10-18T02:59:58;25.58;;;8.05;;
53801;SDS011;39709;53.334;6.534;2022-10-18T03:02:23;26.83;;;9.10;;
53801;SDS011;39709;53.334;6.534;2022-10-18T03:04:49;31.30;;;8.77;;
53801;SDS011;39709;53.334;6.534;2022-10-18T03:07:15;28.40;;;8.40;;
53801;SDS011;39709;53.334;6.534;2022-10-18T03:09:41;36.47;;;7.93;;
53801;SDS011;39709;53.334;6.534;2022-10-18T03:12:06;25.08;;;7.65;;
53801;SDS011;39709;53.334;6.534;2022-10-18T03:14:32;48.53;;;9.63;;
53801;SDS011;39709;53.334;6.534;2022-10-18T03:16:58;40.47;;;7.27;;
53801;SDS011;39709;53.334;6.534;2022-10-18T03:19:23;28.80;;;6.82;;
53801;SDS011;39709;53.334;6.534;2022-10-18T03:21:49;39.80;;;7.73;;
53801;SDS011;39709;53.334;6.534;2022-10-18T03:24:15;25.90;;;7.30;;
53801;SDS011;39709;53.334;6.534;2022-10-18T03:26:40;31.23;;;6.83;;
53801;SDS011;39709;53.334;6.534;2022-10-18T03:29:06;29.10;;;6.97;;
53801;SDS011;39709;53.334;6.534;2022-10-18T03:31:33;15.15;;;6.10;;
53801;SDS011;39709;53.334;6.534;2022-10-18T03:33:58;26.87;;;6.87;;
53801;SDS011;39709;53.334;6.534;2022-10-18T03:36:24;29.37;;;6.70;;
53801;SDS011;39709;53.334;6.534;2022-10-18T03:38:50;20.97;;;5.33;;
53801;SDS011;39709;53.334;6.534;2022-10-18T03:41:16;15.68;;;6.45;;
53801;SDS011;39709;53.334;6.534;2022-10-18T03:43:41;21.77;;;7.33;;
53801;SDS011;39709;53.334;6.534;2022-10-18T03:46:07;22.20;;;7.05;;
53801;SDS011;39709;53.334;6.534;2022-10-18T03:48:33;27.93;;;7.13;;
53801;SDS011;39709;53.334;6.534;2022-10-18T03:50:58;19.98;;;6.90;;
53801;SDS011;39709;53.334;6.534;2022-10-18T03:53:24;23.00;;;6.43;;
53801;SDS011;39709;53.334;6.534;2022-10-18T03:55:51;31.05;;;7.03;;
53801;SDS011;39709;53.334;6.534;2022-10-18T03:58:17;26.08;;;5.93;;
53801;SDS011;39709;53.334;6.534;2022-10-18T04:00:43;22.90;;;6.00;;
53801;SDS011;39709;53.334;6.534;2022-10-18T04:03:09;19.65;;;5.78;;
53801;SDS011;39709;53.334;6.534;2022-10-18T04:05:34;19.40;;;6.57;;
53801;SDS011;39709;53.334;6.534;2022-10-18T04:08:01;25.65;;;7.85;;
53801;SDS011;39709;53.334;6.534;2022-10-18T04:10:26;22.08;;;6.45;;
53801;SDS011;39709;53.334;6.534;2022-10-18T04:12:52;18.90;;;6.78;;
53801;SDS011;39709;53.334;6.534;2022-10-18T04:15:18;23.37;;;7.23;;
53801;SDS011;39709;53.334;6.534;2022-10-18T04:17:44;23.83;;;7.57;;
53801;SDS011;39709;53.334;6.534;2022-10-18T04:20:10;17.65;;;7.47;;
53801;SDS011;39709;53.334;6.534;2022-10-18T04:22:36;20.53;;;6.80;;
53801;SDS011;39709;53.334;6.534;2022-10-18T04:25:02;18.70;;;6.38;;
53801;SDS011;39709;53.334;6.534;2022-10-18T04:27:28;19.63;;;6.93;;
53801;SDS011;39709;53.334;6.534;2022-10-18T04:29:54;30.07;;;6.70;;
53801;SDS011;39709;53.334;6.534;2022-10-18T04:32:20;31.33;;;6.67;;
53801;SDS011;39709;53.334;6.534;2022-10-18T04:34:45;37.80;;;5.63;;
53801;SDS011;39709;53.334;6.534;2022-10-18T04:37:11;22.27;;;6.50;;
53801;SDS011;39709;53.334;6.534;2022-10-18T04:39:37;29.52;;;6.35;;
53801;SDS011;39709;53.334;6.534;2022-10-18T04:42:02;28.20;;;4.80;;
53801;SDS011;39709;53.334;6.534;2022-10-18T04:44:28;33.65;;;6.30;;
53801;SDS011;39709;53.334;6.534;2022-10-18T04:46:54;19.23;;;6.83;;
53801;SDS011;39709;53.334;6.534;2022-10-18T04:49:19;50.92;;;6.38;;
53801;SDS011;39709;53.334;6.534;2022-10-18T04:51:45;41.47;;;5.97;;
53801;SDS011;39709;53.334;6.534;2022-10-18T04:54:11;28.95;;;4.15;;
53801;SDS011;39709;53.334;6.534;2022-10-18T04:56:36;12.57;;;3.43;;
53801;SDS011;39709;53.334;6.534;2022-10-18T04:59:02;31.95;;;5.78;;
53801;SDS011;39709;53.334;6.534;2022-10-18T05:01:33;24.37;;;6.00;;
53801;SDS011;39709;53.334;6.534;2022-10-18T05:04:02;17.38;;;5.18;;
53801;SDS011;39709;53.334;6.534;2022-10-18T05:06:28;17.80;;;5.40;;
53801;SDS011;39709;53.334;6.534;2022-10-18T05:08:53;17.30;;;6.20;;
53801;SDS011;39709;53.334;6.534;2022-10-18T05:11:19;10.70;;;4.50;;
53801;SDS011;39709;53.334;6.534;2022-10-18T05:13:45;13.88;;;4.60;;
53801;SDS011;39709;53.334;6.534;2022-10-18T05:16:10;10.83;;;5.37;;
53801;SDS011;39709;53.334;6.534;2022-10-18T05:18:36;17.52;;;5.05;;
53801;SDS011;39709;53.334;6.534;2022-10-18T05:21:02;21.83;;;5.17;;
53801;SDS011;39709;53.334;6.534;2022-10-18T05:23:28;12.30;;;5.10;;
53801;SDS011;39709;53.334;6.534;2022-10-18T05:25:53;9.23;;;4.17;;
53801;SDS011;39709;53.334;6.534;2022-10-18T05:28:19;10.57;;;5.25;;
53801;SDS011;39709;53.334;6.534;2022-10-18T05:30:45;10.03;;;4.03;;
53801;SDS011;39709;53.334;6.534;2022-10-18T05:33:10;10.20;;;5.67;;
53801;SDS011;39709;53.334;6.534;2022-10-18T05:35:36;10.67;;;5.03;;
53801;SDS011;39709;53.334;6.534;2022-10-18T05:38:02;12.83;;;4.63;;
53801;SDS011;39709;53.334;6.534;2022-10-18T05:40:30;10.68;;;5.80;;
53801;SDS011;39709;53.334;6.534;2022-10-18T05:42:56;16.23;;;6.82;;
53801;SDS011;39709;53.334;6.534;2022-10-18T05:45:22;13.43;;;7.70;;
53801;SDS011;39709;53.334;6.534;2022-10-18T05:47:48;18.87;;;8.97;;
53801;SDS011;39709;53.334;6.534;2022-10-18T05:50:13;13.07;;;7.07;;
53801;SDS011;39709;53.334;6.534;2022-10-18T05:52:39;11.95;;;5.88;;
53801;SDS011;39709;53.334;6.534;2022-10-18T05:55:05;24.27;;;6.03;;
53801;SDS011;39709;53.334;6.534;2022-10-18T05:57:31;19.65;;;5.88;;
53801;SDS011;39709;53.334;6.534;2022-10-18T05:59:56;11.27;;;5.03;;
53801;SDS011;39709;53.334;6.534;2022-10-18T06:02:22;15.90;;;4.87;;
53801;SDS011;39709;53.334;6.534;2022-10-18T06:04:48;14.02;;;5.75;;
53801;SDS011;39709;53.334;6.534;2022-10-18T06:07:14;15.60;;;5.07;;
53801;SDS011;39709;53.334;6.534;2022-10-18T06:09:40;15.07;;;5.00;;
53801;SDS011;39709;53.334;6.534;2022-10-18T06:12:06;13.10;;;4.28;;
53801;SDS011;39709;53.334;6.534;2022-10-18T06:14:33;9.27;;;3.93;;
53801;SDS011;39709;53.334;6.534;2022-10-18T06:16:59;25.58;;;5.03;;
53801;SDS011;39709;53.334;6.534;2022-10-18T06:19:24;34.45;;;5.53;;
53801;SDS011;39709;53.334;6.534;2022-10-18T06:21:50;11.67;;;4.10;;
53801;SDS011;39709;53.334;6.534;2022-10-18T06:24:16;13.52;;;4.38;;
53801;SDS011;39709;53.334;6.534;2022-10-18T06:26:42;12.63;;;5.63;;
53801;SDS011;39709;53.334;6.534;2022-10-18T06:29:08;17.30;;;4.90;;
53801;SDS011;39709;53.334;6.534;2022-10-18T06:31:34;13.23;;;4.55;;
53801;SDS011;39709;53.334;6.534;2022-10-18T06:33:59;10.47;;;4.60;;
53801;SDS011;39709;53.334;6.534;2022-10-18T06:36:27;14.13;;;3.88;;
53801;SDS011;39709;53.334;6.534;2022-10-18T06:38:53;14.30;;;4.20;;
53801;SDS011;39709;53.334;6.534;2022-10-18T06:41:20;7.70;;;3.35;;
53801;SDS011;39709;53.334;6.534;2022-10-18T06:43:49;9.47;;;3.67;;
53801;SDS011;39709;53.334;6.534;2022-10-18T06:46:17;6.35;;;3.25;;
53801;SDS011;39709;53.334;6.534;2022-10-18T06:48:42;8.35;;;4.28;;
53801;SDS011;39709;53.334;6.534;2022-10-18T06:51:08;8.70;;;4.27;;
53801;SDS011;39709;53.334;6.534;2022-10-18T06:53:35;11.73;;;4.22;;
53801;SDS011;39709;53.334;6.534;2022-10-18T06:56:07;7.88;;;3.92;;
53801;SDS011;39709;53.334;6.534;2022-10-18T06:58:36;12.70;;;4.78;;
53801;SDS011;39709;53.334;6.534;2022-10-18T07:01:09;8.97;;;4.57;;
53801;SDS011;39709;53.334;6.534;2022-10-18T07:03:36;10.20;;;5.22;;
53801;SDS011;39709;53.334;6.534;2022-10-18T07:06:03;9.10;;;4.43;;
53801;SDS011;39709;53.334;6.534;2022-10-18T07:08:29;9.60;;;4.80;;
53801;SDS011;39709;53.334;6.534;2022-10-18T07:10:55;10.43;;;5.07;;
53801;SDS011;39709;53.334;6.534;2022-10-18T07:13:21;11.80;;;5.25;;
53801;SDS011;39709;53.334;6.534;2022-10-18T07:15:47;12.55;;;4.65;;
53801;SDS011;39709;53.334;6.534;2022-10-18T07:18:13;12.17;;;4.50;;
53801;SDS011;39709;53.334;6.534;2022-10-18T07:20:38;14.90;;;5.47;;
53801;SDS011;39709;53.334;6.534;2022-10-18T07:23:04;9.63;;;4.90;;
53801;SDS011;39709;53.334;6.534;2022-10-18T07:25:32;10.10;;;4.30;;
53801;SDS011;39709;53.334;6.534;2022-10-18T07:27:58;10.43;;;4.50;;
53801;SDS011;39709;53.334;6.534;2022-10-18T07:30:24;9.52;;;4.40;;
53801;SDS011;39709;53.334;6.534;2022-10-18T07:32:50;9.63;;;4.73;;
53801;SDS011;39709;53.334;6.534;2022-10-18T07:35:16;9.25;;;4.47;;
53801;SDS011;39709;53.334;6.534;2022-10-18T07:37:42;10.05;;;4.80;;
53801;SDS011;39709;53.334;6.534;2022-10-18T07:40:08;9.10;;;4.43;;
53801;SDS011;39709;53.334;6.534;2022-10-18T07:42:35;10.07;;;4.93;;
53801;SDS011;39709;53.334;6.534;2022-10-18T07:45:02;10.52;;;5.10;;
53801;SDS011;39709;53.334;6.534;2022-10-18T07:47:27;13.45;;;5.30;;
53801;SDS011;39709;53.334;6.534;2022-10-18T07:49:53;10.97;;;4.83;;
53801;SDS011;39709;53.334;6.534;2022-10-18T07:52:19;9.13;;;4.97;;
53801;SDS011;39709;53.334;6.534;2022-10-18T07:54:45;12.77;;;6.10;;
53801;SDS011;39709;53.334;6.534;2022-10-18T07:57:10;11.33;;;5.53;;
53801;SDS011;39709;53.334;6.534;2022-10-18T07:59:36;10.48;;;4.85;;
53801;SDS011;39709;53.334;6.534;2022-10-18T08:02:03;14.63;;;5.10;;
53801;SDS011;39709;53.334;6.534;2022-10-18T08:04:28;11.75;;;4.95;;
53801;SDS011;39709;53.334;6.534;2022-10-18T08:06:54;11.87;;;4.80;;
53801;SDS011;39709;53.334;6.534;2022-10-18T08:09:19;10.07;;;4.28;;
53801;SDS011;39709;53.334;6.534;2022-10-18T08:11:45;12.50;;;4.80;;
53801;SDS011;39709;53.334;6.534;2022-10-18T08:14:11;12.85;;;4.60;;
53801;SDS011;39709;53.334;6.534;2022-10-18T08:16:36;14.70;;;4.90;;
53801;SDS011;39709;53.334;6.534;2022-10-18T08:19:02;11.73;;;4.40;;
53801;SDS011;39709;53.334;6.534;2022-10-18T08:21:28;11.05;;;3.83;;
53801;SDS011;39709;53.334;6.534;2022-10-18T08:23:54;11.83;;;3.90;;
53801;SDS011;39709;53.334;6.534;2022-10-18T08:26:20;13.05;;;4.20;;
53801;SDS011;39709;53.334;6.534;2022-10-18T08:28:47;12.02;;;4.35;;
53801;SDS011;39709;53.334;6.534;2022-10-18T08:31:14;15.73;;;4.05;;
53801;SDS011;39709;53.334;6.534;2022-10-18T08:33:42;11.13;;;4.13;;
53801;SDS011;39709;53.334;6.534;2022-10-18T08:36:08;11.23;;;4.00;;
53801;SDS011;39709;53.334;6.534;2022-10-18T08:38:37;11.00;;;3.88;;
53801;SDS011;39709;53.334;6.534;2022-10-18T08:46:48;11.07;;;2.70;;
53801;SDS011;39709;53.334;6.534;2022-10-18T08:49:26;12.27;;;2.47;;
53801;SDS011;39709;53.334;6.534;2022-10-18T08:52:00;12.65;;;2.35;;
53801;SDS011;39709;53.334;6.534;2022-10-18T08:54:33;10.27;;;2.00;;
53801;SDS011;39709;53.334;6.534;2022-10-18T08:57:12;11.90;;;2.70;;
53801;SDS011;39709;53.334;6.534;2022-10-18T08:59:42;11.27;;;2.20;;
53801;SDS011;39709;53.334;6.534;2022-10-18T09:10:24;9.02;;;1.50;;
53801;SDS011;39709;53.334;6.534;2022-10-18T09:16:00;9.48;;;1.40;;
53801;SDS011;39709;53.334;6.534;2022-10-18T09:21:28;10.15;;;1.40;;
53801;SDS011;39709;53.334;6.534;2022-10-18T09:26:49;10.27;;;1.83;;
53801;SDS011;39709;53.334;6.534;2022-10-18T09:32:09;9.20;;;1.30;;
53801;SDS011;39709;53.334;6.534;2022-10-18T09:34:57;9.88;;;1.00;;
53801;SDS011;39709;53.334;6.534;2022-10-18T09:37:30;10.43;;;1.20;;
53801;SDS011;39709;53.334;6.534;2022-10-18T09:40:18;9.80;;;0.90;;
53801;SDS011;39709;53.334;6.534;2022-10-18T09:45:36;7.65;;;1.10;;
53801;SDS011;39709;53.334;6.534;2022-10-18T09:48:21;12.27;;;1.00;;
53801;SDS011;39709;53.334;6.534;2022-10-18T09:51:11;5.22;;;0.60;;
53801;SDS011;39709;53.334;6.534;2022-10-18T09:56:28;10.50;;;0.75;;
53801;SDS011;39709;53.334;6.534;2022-10-18T09:59:01;6.55;;;0.80;;
53801;SDS011;39709;53.334;6.534;2022-10-18T10:01:28;7.50;;;0.80;;
53801;SDS011;39709;53.334;6.534;2022-10-18T10:03:55;8.38;;;0.80;;
53801;SDS011;39709;53.334;6.534;2022-10-18T10:06:28;11.05;;;1.05;;
53801;SDS011;39709;53.334;6.534;2022-10-18T10:11:37;8.93;;;0.83;;
53801;SDS011;39709;53.334;6.534;2022-10-18T10:14:19;8.82;;;0.95;;
53801;SDS011;39709;53.334;6.534;2022-10-18T10:19:38;7.63;;;1.02;;
53801;SDS011;39709;53.334;6.534;2022-10-18T10:22:26;12.90;;;0.85;;
53801;SDS011;39709;53.334;6.534;2022-10-18T10:24:59;10.20;;;0.70;;
53801;SDS011;39709;53.334;6.534;2022-10-18T10:27:38;12.35;;;1.10;;
53801;SDS011;39709;53.334;6.534;2022-10-18T10:30:23;8.75;;;0.85;;
53801;SDS011;39709;53.334;6.534;2022-10-18T10:32:51;10.93;;;0.90;;
53801;SDS011;39709;53.334;6.534;2022-10-18T10:35:28;10.20;;;1.15;;
53801;SDS011;39709;53.334;6.534;2022-10-18T10:37:57;8.87;;;1.37;;
53801;SDS011;39709;53.334;6.534;2022-10-18T10:40:23;7.95;;;0.80;;
53801;SDS011;39709;53.334;6.534;2022-10-18T10:43:01;10.35;;;0.90;;
53801;SDS011;39709;53.334;6.534;2022-10-18T10:45:37;7.10;;;0.80;;
53801;SDS011;39709;53.334;6.534;2022-10-18T10:48:19;9.85;;;0.80;;
53801;SDS011;39709;53.334;6.534;2022-10-18T10:50:50;9.40;;;0.63;;
53801;SDS011;39709;53.334;6.534;2022-10-18T10:56:00;7.32;;;0.82;;
53801;SDS011;39709;53.334;6.534;2022-10-18T10:58:27;7.45;;;0.82;;
53801;SDS011;39709;53.334;6.534;2022-10-18T11:01:02;11.00;;;0.90;;
53801;SDS011;39709;53.334;6.534;2022-10-18T11:03:46;10.67;;;0.70;;
53801;SDS011;39709;53.334;6.534;2022-10-18T11:09:09;8.13;;;0.90;;
53801;SDS011;39709;53.334;6.534;2022-10-18T11:11:59;7.68;;;0.95;;
53801;SDS011;39709;53.334;6.534;2022-10-18T11:14:46;8.40;;;0.93;;
53801;SDS011;39709;53.334;6.534;2022-10-18T11:17:18;7.03;;;0.90;;
53801;SDS011;39709;53.334;6.534;2022-10-18T11:22:38;4.95;;;0.70;;
53801;SDS011;39709;53.334;6.534;2022-10-18T11:28:19;9.15;;;1.10;;
53801;SDS011;39709;53.334;6.534;2022-10-18T11:36:49;12.02;;;1.35;;
53801;SDS011;39709;53.334;6.534;2022-10-18T11:40:00;6.53;;;0.70;;
53801;SDS011;39709;53.334;6.534;2022-10-18T11:45:34;6.87;;;0.87;;
53801;SDS011;39709;53.334;6.534;2022-10-18T11:50:56;9.45;;;1.10;;
53801;SDS011;39709;53.334;6.534;2022-10-18T11:53:33;8.82;;;0.90;;
53801;SDS011;39709;53.334;6.534;2022-10-18T11:56:26;8.05;;;0.93;;
53801;SDS011;39709;53.334;6.534;2022-10-18T11:58:59;8.93;;;1.30;;
53801;SDS011;39709;53.334;6.534;2022-10-18T12:04:14;10.60;;;1.45;;
53801;SDS011;39709;53.334;6.534;2022-10-18T12:06:44;10.27;;;1.30;;
53801;SDS011;39709;53.334;6.534;2022-10-18T12:09:18;11.98;;;1.02;;
53801;SDS011;39709;53.334;6.534;2022-10-18T12:12:27;8.03;;;1.37;;
53801;SDS011;39709;53.334;6.534;2022-10-18T12:15:04;7.63;;;1.00;;
53801;SDS011;39709;53.334;6.534;2022-10-18T12:17:42;8.10;;;0.98;;
53801;SDS011;39709;53.334;6.534;2022-10-18T12:20:13;8.88;;;1.08;;
53801;SDS011;39709;53.334;6.534;2022-10-18T12:25:27;7.63;;;0.90;;
53801;SDS011;39709;53.334;6.534;2022-10-18T12:30:40;8.30;;;1.08;;
53801;SDS011;39709;53.334;6.534;2022-10-18T12:33:17;10.45;;;0.88;;
53801;SDS011;39709;53.334;6.534;2022-10-18T12:39:01;10.63;;;1.07;;
53801;SDS011;39709;53.334;6.534;2022-10-18T12:41:31;6.57;;;0.70;;
53801;SDS011;39709;53.334;6.534;2022-10-18T12:44:03;7.90;;;1.15;;
53801;SDS011;39709;53.334;6.534;2022-10-18T12:46:56;9.40;;;0.90;;
53801;SDS011;39709;53.334;6.534;2022-10-18T12:49:28;8.02;;;0.90;;
53801;SDS011;39709;53.334;6.534;2022-10-18T12:51:55;11.90;;;0.83;;
53801;SDS011;39709;53.334;6.534;2022-10-18T12:54:28;7.70;;;0.82;;
53801;SDS011;39709;53.334;6.534;2022-10-18T12:57:02;11.98;;;0.95;;
53801;SDS011;39709;53.334;6.534;2022-10-18T13:18:52;8.13;;;1.23;;
53801;SDS011;39709;53.334;6.534;2022-10-18T13:21:22;9.05;;;0.80;;
53801;SDS011;39709;53.334;6.534;2022-10-18T13:24:04;5.90;;;0.60;;
53801;SDS011;39709;53.334;6.534;2022-10-18T13:29:46;9.95;;;0.77;;
53801;SDS011;39709;53.334;6.534;2022-10-18T13:32:36;7.70;;;0.90;;
53801;SDS011;39709;53.334;6.534;2022-10-18T13:38:02;8.63;;;0.80;;
53801;SDS011;39709;53.334;6.534;2022-10-18T13:40:29;9.67;;;1.03;;
53801;SDS011;39709;53.334;6.534;2022-10-18T13:42:56;9.45;;;0.93;;
53801;SDS011;39709;53.334;6.534;2022-10-18T13:57:25;8.35;;;0.68;;
53801;SDS011;39709;53.334;6.534;2022-10-18T14:08:01;13.65;;;1.33;;
53801;SDS011;39709;53.334;6.534;2022-10-18T14:13:27;8.13;;;0.70;;
53801;SDS011;39709;53.334;6.534;2022-10-18T14:16:24;6.27;;;0.67;;
53801;SDS011;39709;53.334;6.534;2022-10-18T14:18:53;7.85;;;1.00;;
53801;SDS011;39709;53.334;6.534;2022-10-18T14:21:27;5.70;;;0.65;;
53801;SDS011;39709;53.334;6.534;2022-10-18T14:23:58;8.43;;;0.80;;
53801;SDS011;39709;53.334;6.534;2022-10-18T14:26:24;5.97;;;0.67;;
53801;SDS011;39709;53.334;6.534;2022-10-18T14:29:05;6.70;;;1.00;;
53801;SDS011;39709;53.334;6.534;2022-10-18T14:31:39;8.23;;;0.90;;
53801;SDS011;39709;53.334;6.534;2022-10-18T14:34:09;10.63;;;0.80;;
53801;SDS011;39709;53.334;6.534;2022-10-18T14:36:39;5.90;;;1.10;;
53801;SDS011;39709;53.334;6.534;2022-10-18T14:39:06;8.50;;;0.90;;
53801;SDS011;39709;53.334;6.534;2022-10-18T14:41:51;7.18;;;0.60;;
53801;SDS011;39709;53.334;6.534;2022-10-18T14:44:28;11.13;;;0.75;;
53801;SDS011;39709;53.334;6.534;2022-10-18T14:47:15;8.65;;;0.57;;
53801;SDS011;39709;53.334;6.534;2022-10-18T14:49:45;5.77;;;0.77;;
53801;SDS011;39709;53.334;6.534;2022-10-18T14:52:16;6.30;;;0.70;;
53801;SDS011;39709;53.334;6.534;2022-10-18T14:54:44;6.88;;;0.75;;
53801;SDS011;39709;53.334;6.534;2022-10-18T14:57:18;6.50;;;0.88;;
53801;SDS011;39709;53.334;6.534;2022-10-18T14:59:53;8.70;;;0.85;;
53801;SDS011;39709;53.334;6.534;2022-10-18T15:02:26;6.37;;;0.70;;
53801;SDS011;39709;53.334;6.534;2022-10-18T15:04:57;8.43;;;0.93;;
53801;SDS011;39709;53.334;6.534;2022-10-18T15:07:29;5.05;;;0.65;;
53801;SDS011;39709;53.334;6.534;2022-10-18T15:09:56;6.70;;;0.57;;
53801;SDS011;39709;53.334;6.534;2022-10-18T15:12:24;8.95;;;0.80;;
53801;SDS011;39709;53.334;6.534;2022-10-18T15:14:51;7.00;;;1.00;;
53801;SDS011;39709;53.334;6.534;2022-10-18T15:17:20;6.68;;;0.73;;
53801;SDS011;39709;53.334;6.534;2022-10-18T15:20:01;7.60;;;1.10;;
53801;SDS011;39709;53.334;6.534;2022-10-18T15:22:41;10.63;;;0.85;;
53801;SDS011;39709;53.334;6.534;2022-10-18T15:25:10;4.83;;;0.70;;
53801;SDS011;39709;53.334;6.534;2022-10-18T15:27:38;8.35;;;1.00;;
53801;SDS011;39709;53.334;6.534;2022-10-18T15:30:06;6.55;;;0.93;;
53801;SDS011;39709;53.334;6.534;2022-10-18T15:32:45;8.05;;;1.23;;
53801;SDS011;39709;53.334;6.534;2022-10-18T15:35:34;6.83;;;1.10;;
53801;SDS011;39709;53.334;6.534;2022-10-18T15:38:14;8.40;;;1.10;;
53801;SDS011;39709;53.334;6.534;2022-10-18T15:40:48;9.00;;;0.80;;
53801;SDS011;39709;53.334;6.534;2022-10-18T15:45:53;9.10;;;1.38;;
53801;SDS011;39709;53.334;6.534;2022-10-18T15:48:23;7.07;;;1.00;;
53801;SDS011;39709;53.334;6.534;2022-10-18T15:50:52;6.70;;;0.77;;
53801;SDS011;39709;53.334;6.534;2022-10-18T15:58:49;7.38;;;0.90;;
53801;SDS011;39709;53.334;6.534;2022-10-18T16:01:16;9.60;;;1.27;;
53801;SDS011;39709;53.334;6.534;2022-10-18T16:03:42;5.72;;;0.80;;
53801;SDS011;39709;53.334;6.534;2022-10-18T16:06:09;8.07;;;1.00;;
53801;SDS011;39709;53.334;6.534;2022-10-18T16:08:37;5.95;;;1.35;;
53801;SDS011;39709;53.334;6.534;2022-10-18T16:11:05;6.78;;;1.10;;
53801;SDS011;39709;53.334;6.534;2022-10-18T16:13:32;5.17;;;0.80;;
53801;SDS011;39709;53.334;6.534;2022-10-18T16:15:58;9.70;;;1.65;;
53801;SDS011;39709;53.334;6.534;2022-10-18T16:18:24;11.95;;;2.72;;
53801;SDS011;39709;53.334;6.534;2022-10-18T16:20:50;13.47;;;2.73;;
53801;SDS011;39709;53.334;6.534;2022-10-18T16:25:47;5.70;;;0.70;;
53801;SDS011;39709;53.334;6.534;2022-10-18T16:28:15;3.85;;;0.70;;
53801;SDS011;39709;53.334;6.534;2022-10-18T16:30:44;6.53;;;0.90;;
53801;SDS011;39709;53.334;6.534;2022-10-18T16:33:13;5.70;;;0.80;;
53801;SDS011;39709;53.334;6.534;2022-10-18T16:35:39;5.93;;;0.60;;
53801;SDS011;39709;53.334;6.534;2022-10-18T16:38:04;6.57;;;0.67;;
53801;SDS011;39709;53.334;6.534;2022-10-18T16:40:30;4.05;;;0.50;;
53801;SDS011;39709;53.334;6.534;2022-10-18T16:42:56;3.17;;;0.40;;
53801;SDS011;39709;53.334;6.534;2022-10-18T16:45:21;7.65;;;0.80;;
53801;SDS011;39709;53.334;6.534;2022-10-18T16:47:47;8.27;;;0.70;;
53801;SDS011;39709;53.334;6.534;2022-10-18T16:50:14;4.90;;;0.73;;
53801;SDS011;39709;53.334;6.534;2022-10-18T16:52:41;9.27;;;0.82;;
53801;SDS011;39709;53.334;6.534;2022-10-18T16:55:07;6.90;;;1.13;;
53801;SDS011;39709;53.334;6.534;2022-10-18T16:57:39;5.47;;;0.60;;
53801;SDS011;39709;53.334;6.534;2022-10-18T17:00:05;9.37;;;0.70;;
53801;SDS011;39709;53.334;6.534;2022-10-18T17:02:31;5.78;;;0.60;;
53801;SDS011;39709;53.334;6.534;2022-10-18T17:04:57;4.55;;;0.80;;
53801;SDS011;39709;53.334;6.534;2022-10-18T17:07:23;6.53;;;1.00;;
53801;SDS011;39709;53.334;6.534;2022-10-18T17:09:49;5.85;;;0.90;;
53801;SDS011;39709;53.334;6.534;2022-10-18T17:12:15;6.13;;;0.67;;
53801;SDS011;39709;53.334;6.534;2022-10-18T17:14:40;4.80;;;0.50;;
53801;SDS011;39709;53.334;6.534;2022-10-18T17:17:08;6.53;;;0.70;;
53801;SDS011;39709;53.334;6.534;2022-10-18T17:19:36;5.28;;;0.55;;
53801;SDS011;39709;53.334;6.534;2022-10-18T17:22:01;4.70;;;0.60;;
53801;SDS011;39709;53.334;6.534;2022-10-18T17:24:27;3.73;;;0.53;;
53801;SDS011;39709;53.334;6.534;2022-10-18T17:26:53;7.90;;;0.80;;
53801;SDS011;39709;53.334;6.534;2022-10-18T17:29:18;3.70;;;0.50;;
53801;SDS011;39709;53.334;6.534;2022-10-18T17:31:44;7.40;;;0.70;;
53801;SDS011;39709;53.334;6.534;2022-10-18T17:34:10;4.30;;;0.68;;
53801;SDS011;39709;53.334;6.534;2022-10-18T17:36:36;4.00;;;0.50;;